Weather History for Erie, CO

Change the Weather History Date:

Monday, September 2, 2013

  Actual Average (KBJC) Record (KBJC)
Temperature  
Mean Temperature 73 °F -  
Max Temperature 91 °F 81 °F 92 °F (1989)
Min Temperature 55 °F 56 °F 45 °F (1986)
Cooling Degree Days 8    
Growing Degree Days 23 (Base 50)    
Moisture  
Dew Point 51 °F    
Average Humidity 53    
Maximum Humidity 91    
Minimum Humidity 17    
Precipitation  
Precipitation 0.00 in - - ()
Sea Level Pressure  
Sea Level Pressure 30.13 in    
Wind  
Wind Speed 1 mph (SSW)    
Max Wind Speed 9 mph    
Max Gust Speed -    
Visibility 10 miles    
Events      
Averages and records for this station are not official NWS values.
T = Trace of Precipitation, MM = Missing Value Source: NWS Daily Summary

Daily Weather History Graph

Daily Weather History Graph

Search for Another Location

Airport:

Trip Planner

Search our weather history database for the weather conditions in past years. The results will help you decide how hot, cold, wet, or windy it might be!

Date:

Astronomy

Sep. 02, 2013 Rise Set
Actual Time 6:29 AM MDT 7:29 PM MDT
Civil Twilight 6:01 AM MDT 7:57 PM MDT
Nautical Twilight 5:28 AM MDT 8:30 PM MDT
Astronomical Twilight 4:54 AM MDT 9:04 PM MDT
Moon 3:48 AM MDT (9/2) 5:44 PM MDT (9/2)
Length of Visible Light 13h 55m
Length of Day
13h 00m
Waning Crescent, 7% of the Moon is Illuminated
Sep 2
Waning Crescent
Sep 5
New
Sep 12
First Quarter
Sep 19
Full
Sep 26
Last Quarter

Hourly Weather History & Observations

Time (MDT) Temp. Heat Index Dew Point Humidity Pressure Visibility Wind Dir Wind Speed Gust Speed Precip Events Conditions
12:14 AM 61.9 °F - 55.9 °F 81% 30.17 in 10.0 mi Calm Calm - N/A   Clear
12:34 AM 61.9 °F - 55.9 °F 81% 30.17 in 10.0 mi Calm Calm - N/A   Clear
12:54 AM 60.3 °F - 55.2 °F 83% 30.17 in 10.0 mi Calm Calm - N/A   Clear
1:14 AM 60.8 °F - 55.8 °F 83% 30.17 in 10.0 mi Calm Calm - N/A   Clear
1:34 AM 60.3 °F - 55.4 °F 84% 30.17 in 10.0 mi Calm Calm - N/A   Clear
1:54 AM 59.5 °F - 55.2 °F 86% 30.17 in 10.0 mi Calm Calm - N/A   Clear
2:14 AM 58.8 °F - 54.7 °F 86% 30.16 in 10.0 mi Calm Calm - N/A   Clear
2:34 AM 59.0 °F - 54.3 °F 84% 30.17 in 10.0 mi Calm Calm - N/A   Clear
2:54 AM 59.0 °F - 54.5 °F 85% 30.16 in 10.0 mi Calm Calm - N/A   Clear
3:14 AM 59.2 °F - 54.9 °F 86% 30.17 in 10.0 mi Calm Calm - N/A   Clear
3:34 AM 59.2 °F - 55.0 °F 86% 30.16 in 10.0 mi Calm Calm - N/A   Clear
3:54 AM 58.8 °F - 54.7 °F 86% 30.15 in 10.0 mi Calm Calm - N/A   Clear
4:14 AM 58.3 °F - 54.5 °F 87% 30.15 in 10.0 mi Calm Calm - N/A   Clear
4:34 AM 56.7 °F - 53.4 °F 89% 30.15 in 10.0 mi Calm Calm - N/A   Clear
4:54 AM 56.1 °F - 53.1 °F 89% 30.15 in 10.0 mi Calm Calm - N/A   Clear
5:14 AM 55.9 °F - 53.1 °F 90% 30.15 in 10.0 mi Calm Calm - N/A   Clear
5:34 AM 56.8 °F - 53.8 °F 89% 30.15 in 10.0 mi Calm Calm - N/A   Clear
5:54 AM 56.3 °F - 53.6 °F 91% 30.16 in 10.0 mi South 3.5 mph - N/A   Clear
6:14 AM 56.7 °F - 53.8 °F 90% 30.17 in 10.0 mi Calm Calm - N/A   Clear
6:34 AM 55.2 °F - 52.7 °F 91% 30.17 in 10.0 mi Calm Calm - N/A   Clear
6:54 AM 55.4 °F - 52.9 °F 91% 30.17 in 10.0 mi Calm Calm - N/A   Clear
7:14 AM 56.8 °F - 54.0 °F 90% 30.18 in 10.0 mi Calm Calm - N/A   Clear
7:34 AM 59.7 °F - 56.3 °F 88% 30.18 in 10.0 mi Calm Calm - N/A   Clear
7:54 AM 62.1 °F - 57.0 °F 84% 30.18 in 10.0 mi Calm Calm - N/A   Clear
8:14 AM 64.8 °F - 57.0 °F 76% 30.18 in 10.0 mi Calm Calm - N/A   Clear
8:34 AM 66.2 °F - 57.0 °F 72% 30.19 in 10.0 mi Calm Calm - N/A   Clear
8:54 AM 68.2 °F - 57.0 °F 67% 30.19 in 10.0 mi Calm Calm - N/A   Clear
9:14 AM 69.3 °F - 57.2 °F 65% 30.19 in 10.0 mi Calm Calm - N/A   Clear
9:34 AM 70.9 °F - 57.0 °F 61% 30.19 in 10.0 mi Calm Calm - N/A   Clear
9:54 AM 72.3 °F - 56.8 °F 58% 30.19 in 10.0 mi Calm Calm - N/A   Clear
10:14 AM 74.8 °F - 55.2 °F 50% 30.18 in 10.0 mi East 3.5 mph - N/A   Clear
10:34 AM 75.4 °F - 54.5 °F 48% 30.18 in 10.0 mi Calm Calm - N/A   Clear
10:54 AM 76.8 °F - 54.7 °F 46% 30.18 in 10.0 mi Calm Calm - N/A   Clear
11:14 AM 78.6 °F - 55.0 °F 44% 30.17 in 10.0 mi WSW 4.6 mph - N/A   Clear
11:34 AM 80.1 °F 80.1 °F 54.3 °F 41% 30.17 in 10.0 mi ESE 3.5 mph - N/A   Clear
11:54 AM 82.2 °F 81.3 °F 53.6 °F 37% 30.16 in 10.0 mi Calm Calm - N/A   Clear
12:14 PM 82.8 °F 81.7 °F 54.3 °F 37% 30.15 in 10.0 mi ENE 5.8 mph - N/A   Clear
12:34 PM 84.0 °F 82.7 °F 54.3 °F 36% 30.14 in 10.0 mi Calm Calm - N/A   Clear
12:54 PM 85.6 °F 83.8 °F 53.2 °F 33% 30.14 in 7.0 mi East 6.9 mph - N/A   Clear
1:14 PM 86.9 °F - 52.5 °F 31% 30.13 in 10.0 mi East 3.5 mph - N/A   Clear
1:34 PM 87.8 °F - 52.9 °F 30% 30.13 in 10.0 mi East 6.9 mph - N/A   Clear
1:54 PM 89.4 °F - 49.3 °F 25% 30.13 in 10.0 mi SSE 9.2 mph - N/A   Clear
2:14 PM 89.8 °F - 48.4 °F 24% 30.12 in 10.0 mi South 5.8 mph - N/A   Clear
2:34 PM 90.0 °F - 45.7 °F 22% 30.11 in 10.0 mi South 6.9 mph - N/A   Clear
2:54 PM 90.9 °F - 46.2 °F 21% 30.10 in 10.0 mi SSE 8.1 mph - N/A   Clear
3:14 PM 91.0 °F - 47.3 °F 22% 30.09 in 10.0 mi SSW 8.1 mph - N/A   Clear
3:34 PM 90.3 °F - 48.6 °F 24% 30.09 in 10.0 mi WSW 8.1 mph - N/A   Clear
3:54 PM 90.5 °F - 48.2 °F 23% 30.08 in 10.0 mi SSW 8.1 mph - N/A   Clear
4:14 PM 90.7 °F - 47.3 °F 22% 30.08 in 10.0 mi SW 4.6 mph - N/A   Clear
4:34 PM 91.6 °F - 45.9 °F 21% 30.07 in 10.0 mi West 3.5 mph - N/A   Clear
4:54 PM 91.4 °F - 44.1 °F 19% 30.07 in 10.0 mi SSW 3.5 mph - N/A   Clear
5:14 PM 91.6 °F - 42.4 °F 18% 30.06 in 10.0 mi Calm Calm - N/A   Clear
5:34 PM 91.4 °F - 41.9 °F 18% 30.06 in 10.0 mi SW 5.8 mph - N/A   Clear
5:54 PM 91.2 °F - 41.5 °F 18% 30.06 in 10.0 mi SSE 6.9 mph - N/A   Clear
6:14 PM 90.7 °F - 40.1 °F 17% 30.06 in 10.0 mi Calm Calm - N/A   Clear
6:34 PM 88.7 °F - 42.3 °F 20% 30.06 in 10.0 mi Calm Calm - N/A   Clear
6:54 PM 88.0 °F - 42.4 °F 20% 30.05 in 10.0 mi SSW 3.5 mph - N/A   Clear
7:14 PM 85.6 °F - 42.8 °F 22% 30.05 in 10.0 mi SSW 3.5 mph - N/A   Clear
7:34 PM 82.9 °F - 43.0 °F 24% 30.06 in 10.0 mi SW 3.5 mph - N/A   Clear
7:54 PM 81.0 °F - 43.9 °F 27% 30.07 in 10.0 mi Calm Calm - N/A   Clear
8:14 PM 77.9 °F - 45.1 °F 31% 30.07 in 10.0 mi Calm Calm - N/A   Clear
8:34 PM 76.6 °F - 45.0 °F 32% 30.07 in 10.0 mi Calm Calm - N/A   Clear
8:54 PM 77.0 °F - 46.4 °F 34% 30.07 in 10.0 mi SW 3.5 mph - N/A   Clear
9:14 PM 76.5 °F - 48.4 °F 37% 30.08 in 10.0 mi SSW 5.8 mph - N/A   Clear
9:34 PM 75.4 °F - 49.1 °F 39% 30.07 in 10.0 mi SW 3.5 mph - N/A   Clear
9:54 PM 73.2 °F - 48.9 °F 42% 30.08 in 10.0 mi Calm Calm - N/A   Clear
10:14 PM 70.7 °F - 48.9 °F 46% 30.08 in 10.0 mi Calm Calm - N/A   Clear
10:34 PM 71.2 °F - 48.2 °F 44% 30.08 in 10.0 mi SSW 3.5 mph - N/A   Clear
10:54 PM 68.2 °F - 48.6 °F 49% 30.08 in 10.0 mi NW 3.5 mph - N/A   Clear
11:14 PM 68.0 °F - 47.3 °F 47% 30.09 in 10.0 mi Calm Calm - N/A   Clear
11:34 PM 66.2 °F - 48.7 °F 53% 30.09 in 10.0 mi Calm Calm - N/A   Clear
11:54 PM 67.5 °F - 48.2 °F 50% 30.09 in 10.0 mi Calm Calm - N/A   Clear